Cottage Grove, OR

9:08 AM PST on February 11, 2016 (GMT -0800)
Wilson Creek | | Change Station
CLOSE
Current Station
Personal Weather Station
Location: Cottage Grove, OR
Elevation: 1020 ft
Nearby Weather Stations

Elev 1020 ft 43.69 °N, 123.05 °W | Updated 19 seconds ago

Rain
Rain
47.8 °F
Feels Like 48 °F
N
0.0
Wind Variable Wind from North
Gusts 2.5 mph

Today
High -- | Low -- °F
--% Chance of Precip.
Yesterday
High -- | Low -- °F
Precip. -- in
Pressure 30.17 in
Visibility 10.0 miles
Clouds Few 2000 ft
Mostly Cloudy 7500 ft
Overcast 10000 ft
Windchill 48 °F
Dew Point 47 °F
Humidity 98%
Rainfall 0.02 in
Snow Depth Not available.
7:16 AM 5:36 PM
Waxing Crescent, 13% visible
METAR KEUG 111654Z 16009KT 10SM FEW020 BKN075 OVC100 11/08 A3017 RMK AO2 RAE41 SLP217 P0005 T01060083
Pressure 30.17 in
Visibility 10.0 miles
Clouds Few 2000 ft
Mostly Cloudy 7500 ft
Overcast 10000 ft
Windchill 48 °F
Dew Point 47 °F
Humidity 98%
Rainfall 0.02 in
Snow Depth Not available.
7:16 AM 5:36 PM
Waxing Crescent, 13% visible
METAR KEUG 111654Z 16009KT 10SM FEW020 BKN075 OVC100 11/08 A3017 RMK AO2 RAE41 SLP217 P0005 T01060083

10-Day Weather Forecast

Almanac

Astronomy

Feb. 11, 2016 Rise Set
Actual Time
Civil Twilight
Nautical Twilight
Astronomical Twilight
Moon
Length of Visible Light
Length of Day
Tomorrow will be .
, % of the Moon is Illuminated

Today's Extremes

State Highs State Lows

Community

WunderPhotos

Upload Photos

1,892,102 photos uploaded!

WunderBlog® & News

Nearby

Air Quality

  Air Quality AQ Index Pollutant
Not available.

Snow Depth

Station Depth Elevation

Earthquake Activity

City Distance Mag. Time & Date
Minimum magnitude displayed is 2.5.

Coastal Water Temperatures

Place Temperature

Stations

Nearby Weather Stations

Station Location Temp. Windchill Dew Point Humidity Wind Precip. Elev Updated Type
                   

Watches & Warnings

There are currently no watches in effect.